createdAt,value
2018-07-14T00:00:32.745Z,0.00
2018-07-14T00:01:32.734Z,0.00
2018-07-14T00:02:32.719Z,0.00
2018-07-14T00:03:32.707Z,0.00
2018-07-14T00:04:32.701Z,0.00
2018-07-14T00:05:32.678Z,0.00
2018-07-14T00:06:32.664Z,0.00
2018-07-14T00:07:32.649Z,0.00
2018-07-14T00:08:32.635Z,0.00
2018-07-14T00:09:32.632Z,0.00
2018-07-14T00:10:32.610Z,0.00
2018-07-14T00:11:32.593Z,0.00
2018-07-14T00:12:32.586Z,0.00
2018-07-14T00:13:32.570Z,0.00
2018-07-14T00:14:32.553Z,0.00
2018-07-14T00:15:32.537Z,0.00
2018-07-14T00:16:32.527Z,0.00
2018-07-14T00:17:32.513Z,0.00
2018-07-14T00:18:32.598Z,0.00
2018-07-14T00:19:32.483Z,0.00
2018-07-14T00:20:32.476Z,0.00
2018-07-14T00:21:32.455Z,0.00
2018-07-14T00:22:32.443Z,0.00
2018-07-14T00:23:32.427Z,0.00
2018-07-14T00:24:32.418Z,0.00
2018-07-14T00:25:32.402Z,0.00
2018-07-14T00:26:32.389Z,0.00
2018-07-14T00:27:32.373Z,0.00
2018-07-14T00:28:32.360Z,0.00
2018-07-14T00:29:32.345Z,0.00
2018-07-14T00:30:32.328Z,0.00
2018-07-14T00:31:32.314Z,0.00
2018-07-14T00:32:32.300Z,0.00
2018-07-14T00:33:32.286Z,0.00
2018-07-14T00:34:32.272Z,0.00
2018-07-14T00:35:32.262Z,0.00
2018-07-14T00:36:32.245Z,0.00
2018-07-14T00:37:32.231Z,0.00
2018-07-14T00:38:32.224Z,0.00
2018-07-14T00:39:32.201Z,0.00
2018-07-14T00:40:32.190Z,0.00
2018-07-14T00:41:32.174Z,0.00
2018-07-14T00:42:32.242Z,0.00
2018-07-14T00:43:32.147Z,0.00
2018-07-14T00:44:32.133Z,0.00
2018-07-14T00:45:32.117Z,0.00
2018-07-14T00:46:32.105Z,0.00
2018-07-14T00:47:32.090Z,0.00
2018-07-14T00:48:32.076Z,0.00
2018-07-14T00:49:32.062Z,0.00
2018-07-14T00:50:32.054Z,0.00
2018-07-14T00:51:32.039Z,0.00
2018-07-14T00:52:32.024Z,0.00
2018-07-14T00:53:32.012Z,0.00
2018-07-14T00:54:31.994Z,0.00
2018-07-14T00:55:31.983Z,0.00
2018-07-14T00:56:31.966Z,0.00
2018-07-14T00:57:31.951Z,0.00
2018-07-14T00:58:31.934Z,0.00
2018-07-14T00:59:31.921Z,0.00
2018-07-14T01:00:31.906Z,0.00
2018-07-14T01:01:31.895Z,0.00
2018-07-14T01:02:31.880Z,0.00
2018-07-14T01:03:31.866Z,0.00
2018-07-14T01:04:31.857Z,0.00
2018-07-14T01:05:31.833Z,0.00
2018-07-14T01:06:31.818Z,0.00
2018-07-14T01:07:31.805Z,0.00
2018-07-14T01:08:31.794Z,0.00
2018-07-14T01:09:31.776Z,0.00
2018-07-14T01:10:31.762Z,0.00
2018-07-14T01:11:31.750Z,0.00
2018-07-14T01:12:31.735Z,0.00
2018-07-14T01:13:31.721Z,0.00
2018-07-14T01:14:31.706Z,0.00
2018-07-14T01:15:31.691Z,0.00
2018-07-14T01:16:31.683Z,0.00
2018-07-14T01:17:31.658Z,0.00
2018-07-14T01:18:31.648Z,0.00
2018-07-14T01:19:31.636Z,0.00
2018-07-14T01:20:31.672Z,0.00
2018-07-14T01:21:31.603Z,0.00
2018-07-14T01:22:31.587Z,0.00
2018-07-14T01:23:31.572Z,0.00
2018-07-14T01:24:31.558Z,0.00
2018-07-14T01:25:31.545Z,0.00
2018-07-14T01:26:31.532Z,0.00
2018-07-14T01:27:31.521Z,0.00
2018-07-14T01:28:31.500Z,0.00
2018-07-14T01:29:31.488Z,0.00
2018-07-14T01:30:31.471Z,0.00
2018-07-14T01:31:31.455Z,0.00
2018-07-14T01:32:31.445Z,0.00
2018-07-14T01:33:31.463Z,0.00
2018-07-14T01:34:31.412Z,0.00
2018-07-14T01:35:31.397Z,0.00
2018-07-14T01:36:31.382Z,0.00
2018-07-14T01:37:31.367Z,0.00
2018-07-14T01:38:31.355Z,0.00
2018-07-14T01:39:31.340Z,0.00
2018-07-14T01:40:31.366Z,0.00
2018-07-14T01:41:31.315Z,0.00
2018-07-14T01:42:31.305Z,0.00
2018-07-14T01:43:31.278Z,0.00
2018-07-14T01:44:31.367Z,0.00
2018-07-14T01:45:31.256Z,0.00
2018-07-14T01:46:31.238Z,0.00
2018-07-14T01:47:31.233Z,0.00
2018-07-14T01:48:31.209Z,0.00
2018-07-14T01:49:31.192Z,0.00
2018-07-14T01:50:31.177Z,0.00
2018-07-14T01:51:31.171Z,0.00
2018-07-14T01:52:31.154Z,0.00
2018-07-14T01:53:31.134Z,0.00
2018-07-14T01:54:31.122Z,0.00
2018-07-14T01:55:31.110Z,0.00
2018-07-14T01:56:31.091Z,0.00
2018-07-14T01:57:31.073Z,0.00
2018-07-14T01:58:31.059Z,0.00
2018-07-14T01:59:31.048Z,0.00
2018-07-14T02:00:31.047Z,0.00
2018-07-14T02:01:31.017Z,0.00
2018-07-14T02:02:31.006Z,0.00
2018-07-14T02:03:30.988Z,0.00
2018-07-14T02:04:30.974Z,0.00
2018-07-14T02:05:30.956Z,0.00
2018-07-14T02:06:30.943Z,0.00
2018-07-14T02:07:30.929Z,0.00
2018-07-14T02:08:30.917Z,0.00
2018-07-14T02:09:30.903Z,0.00
2018-07-14T02:10:30.886Z,0.00
2018-07-14T02:11:30.865Z,0.00
2018-07-14T02:12:30.850Z,0.00
2018-07-14T02:13:30.834Z,0.00
2018-07-14T02:14:30.825Z,0.00
2018-07-14T02:15:30.809Z,0.00
2018-07-14T02:16:30.794Z,0.00
2018-07-14T02:17:30.783Z,0.00
2018-07-14T02:18:30.768Z,0.00
2018-07-14T02:19:30.750Z,0.00
2018-07-14T02:20:30.737Z,0.00
2018-07-14T02:21:30.724Z,0.00
2018-07-14T02:22:30.708Z,0.00
2018-07-14T02:23:30.694Z,0.00
2018-07-14T02:24:30.682Z,0.00
2018-07-14T02:25:30.660Z,0.00
2018-07-14T02:26:30.665Z,0.00
2018-07-14T02:27:30.688Z,0.00
2018-07-14T02:28:30.624Z,0.00
2018-07-14T02:29:30.601Z,0.00
2018-07-14T02:30:30.589Z,0.00
2018-07-14T02:31:30.577Z,0.00
2018-07-14T02:32:30.570Z,0.00
2018-07-14T02:33:30.553Z,0.00
2018-07-14T02:34:30.535Z,0.00
2018-07-14T02:35:30.513Z,0.00
2018-07-14T02:36:30.507Z,0.00
2018-07-14T02:37:30.486Z,0.00
2018-07-14T02:38:30.472Z,0.00
2018-07-14T02:39:30.464Z,0.00
2018-07-14T02:40:30.445Z,0.00
2018-07-14T02:41:30.435Z,0.00
2018-07-14T02:42:30.413Z,0.00
2018-07-14T02:43:30.400Z,0.00
2018-07-14T02:44:30.385Z,0.00
2018-07-14T02:45:30.366Z,0.00
2018-07-14T02:46:30.411Z,0.00
2018-07-14T02:47:30.354Z,0.00
2018-07-14T02:48:30.323Z,0.00
2018-07-14T02:49:30.307Z,0.00
2018-07-14T02:50:30.295Z,0.00
2018-07-14T02:51:30.277Z,0.00
2018-07-14T02:52:30.263Z,0.00
2018-07-14T02:53:30.253Z,0.00
2018-07-14T02:54:30.233Z,0.00
2018-07-14T02:55:30.220Z,0.00
2018-07-14T02:56:30.207Z,0.00
2018-07-14T02:57:30.245Z,0.00
2018-07-14T02:58:30.178Z,0.00
2018-07-14T02:59:30.168Z,0.00
2018-07-14T03:00:30.153Z,4.00
2018-07-14T03:01:30.134Z,4.00
2018-07-14T03:02:30.266Z,0.00
2018-07-14T03:03:30.108Z,0.00
2018-07-14T03:04:30.090Z,0.00
2018-07-14T03:05:30.070Z,4.00
2018-07-14T03:06:30.062Z,0.00
2018-07-14T03:07:30.047Z,4.00
2018-07-14T03:08:30.029Z,4.00
2018-07-14T03:09:30.013Z,0.00
2018-07-14T03:10:30.006Z,4.00
2018-07-14T03:11:29.987Z,0.00
2018-07-14T03:12:29.973Z,4.00
2018-07-14T03:13:29.966Z,4.00
2018-07-14T03:14:29.943Z,4.00
2018-07-14T03:15:29.927Z,4.00
2018-07-14T03:16:29.909Z,8.00
2018-07-14T03:17:29.895Z,8.00
2018-07-14T03:18:29.885Z,4.00
2018-07-14T03:19:29.895Z,8.00
2018-07-14T03:20:29.855Z,8.00
2018-07-14T03:21:29.837Z,12.00
2018-07-14T03:22:29.825Z,8.00
2018-07-14T03:23:29.808Z,8.00
2018-07-14T03:24:29.796Z,12.00
2018-07-14T03:25:29.777Z,12.00
2018-07-14T03:26:29.764Z,16.00
2018-07-14T03:27:29.752Z,12.00
2018-07-14T03:28:29.741Z,12.00
2018-07-14T03:29:29.823Z,16.00
2018-07-14T03:30:29.702Z,16.00
2018-07-14T03:31:29.689Z,16.00
2018-07-14T03:32:29.674Z,16.00
2018-07-14T03:33:29.660Z,20.00
2018-07-14T03:34:29.646Z,20.00
2018-07-14T03:35:29.632Z,24.00
2018-07-14T03:36:29.616Z,24.00
2018-07-14T03:37:29.596Z,24.00
2018-07-14T03:38:29.585Z,24.00
2018-07-14T03:39:29.569Z,24.00
2018-07-14T03:40:29.553Z,24.00
2018-07-14T03:41:29.536Z,28.00
2018-07-14T03:42:29.522Z,28.00
2018-07-14T03:43:29.510Z,32.00
2018-07-14T03:44:29.499Z,36.00
2018-07-14T03:45:29.481Z,36.00
2018-07-14T03:46:29.466Z,36.00
2018-07-14T03:47:29.451Z,40.00
2018-07-14T03:48:29.486Z,44.00
2018-07-14T03:49:29.421Z,44.00
2018-07-14T03:50:29.403Z,40.00
2018-07-14T03:51:29.399Z,44.00
2018-07-14T03:52:29.375Z,44.00
2018-07-14T03:53:29.370Z,44.00
2018-07-14T03:54:29.345Z,44.00
2018-07-14T03:55:29.330Z,48.00
2018-07-14T03:56:29.323Z,52.00
2018-07-14T03:57:29.300Z,52.00
2018-07-14T03:58:29.285Z,56.00
2018-07-14T03:59:29.279Z,56.00
2018-07-14T04:00:29.259Z,60.00
2018-07-14T04:01:29.244Z,60.00
2018-07-14T04:02:29.224Z,64.00
2018-07-14T04:03:29.213Z,68.00
2018-07-14T04:04:29.196Z,72.00
2018-07-14T04:05:29.180Z,76.00
2018-07-14T04:06:29.250Z,80.00
2018-07-14T04:07:29.152Z,80.00
2018-07-14T04:08:29.136Z,88.00
2018-07-14T04:09:29.123Z,92.00
2018-07-14T04:10:29.106Z,88.00
2018-07-14T04:11:29.095Z,92.00
2018-07-14T04:12:29.125Z,92.00
2018-07-14T04:13:29.071Z,96.00
2018-07-14T04:14:29.045Z,100.00
2018-07-14T04:15:29.044Z,100.00
2018-07-14T04:16:29.016Z,108.00
2018-07-14T04:17:29.007Z,108.00
2018-07-14T04:18:28.990Z,116.00
2018-07-14T04:19:28.975Z,116.00
2018-07-14T04:20:28.957Z,120.00
2018-07-14T04:21:28.953Z,124.00
2018-07-14T04:22:28.935Z,120.00
2018-07-14T04:23:28.915Z,124.00
2018-07-14T04:24:28.904Z,124.00
2018-07-14T04:25:28.896Z,124.00
2018-07-14T04:26:28.874Z,128.00
2018-07-14T04:27:28.858Z,128.00
2018-07-14T04:28:29.039Z,136.00
2018-07-14T04:29:28.826Z,144.00
2018-07-14T04:30:28.813Z,152.00
2018-07-14T04:31:28.817Z,164.00
2018-07-14T04:32:28.786Z,172.00
2018-07-14T04:33:28.768Z,180.00
2018-07-14T04:34:28.754Z,176.00
2018-07-14T04:35:28.745Z,176.00
2018-07-14T04:36:28.724Z,172.00
2018-07-14T04:37:28.752Z,172.00
2018-07-14T04:38:28.692Z,168.00
2018-07-14T04:39:28.675Z,172.00
2018-07-14T04:40:28.660Z,172.00
2018-07-14T04:41:28.647Z,176.00
2018-07-14T04:42:28.679Z,176.00
2018-07-14T04:43:28.618Z,176.00
2018-07-14T04:44:28.605Z,176.00
2018-07-14T04:45:28.587Z,176.00
2018-07-14T04:46:28.572Z,184.00
2018-07-14T04:47:28.557Z,176.00
2018-07-14T04:48:28.541Z,176.00
2018-07-14T04:49:28.560Z,180.00
2018-07-14T04:50:28.508Z,184.00
2018-07-14T04:51:28.499Z,192.00
2018-07-14T04:52:28.483Z,192.00
2018-07-14T04:53:28.461Z,196.00
2018-07-14T04:54:28.448Z,200.00
2018-07-14T04:55:28.595Z,204.00
2018-07-14T04:56:28.421Z,208.00
2018-07-14T04:57:28.406Z,212.00
2018-07-14T04:58:28.387Z,220.00
2018-07-14T04:59:28.376Z,220.00
2018-07-14T05:00:28.357Z,244.00
2018-07-14T05:01:28.345Z,248.00
2018-07-14T05:02:28.337Z,252.00
2018-07-14T05:03:28.315Z,252.00
2018-07-14T05:04:28.302Z,252.00
2018-07-14T05:05:28.287Z,252.00
2018-07-14T05:06:28.286Z,256.00
2018-07-14T05:07:28.255Z,256.00
2018-07-14T05:08:28.242Z,264.00
2018-07-14T05:09:28.226Z,272.00
2018-07-14T05:10:28.214Z,276.00
2018-07-14T05:11:28.375Z,288.00
2018-07-14T05:12:28.183Z,292.00
2018-07-14T05:13:28.172Z,292.00
2018-07-14T05:14:28.152Z,300.00
2018-07-14T05:15:28.136Z,304.00
2018-07-14T05:16:28.121Z,308.00
2018-07-14T05:17:28.105Z,308.00
2018-07-14T05:18:28.087Z,312.00
2018-07-14T05:19:28.073Z,312.00
2018-07-14T05:20:28.067Z,316.00
2018-07-14T05:21:28.135Z,320.00
2018-07-14T05:22:28.035Z,324.00
2018-07-14T05:23:28.016Z,328.00
2018-07-14T05:24:28.008Z,332.00
2018-07-14T05:25:27.985Z,336.00
2018-07-14T05:26:27.969Z,344.00
2018-07-14T05:27:27.956Z,348.00
2018-07-14T05:28:27.946Z,352.00
2018-07-14T05:29:28.015Z,352.00
2018-07-14T05:30:28.032Z,360.00
2018-07-14T05:31:27.898Z,360.00
2018-07-14T05:32:27.899Z,364.00
2018-07-14T05:33:27.873Z,364.00
2018-07-14T05:34:27.852Z,372.00
2018-07-14T05:35:27.842Z,372.00
2018-07-14T05:36:27.825Z,376.00
2018-07-14T05:37:27.806Z,376.00
2018-07-14T05:38:27.800Z,376.00
2018-07-14T05:39:27.779Z,380.00
2018-07-14T05:40:27.766Z,380.00
2018-07-14T05:41:27.848Z,384.00
2018-07-14T05:42:27.731Z,392.00
2018-07-14T05:43:27.721Z,392.00
2018-07-14T05:44:27.706Z,396.00
2018-07-14T05:45:27.693Z,400.00
2018-07-14T05:46:27.675Z,400.00
2018-07-14T05:47:27.664Z,404.00
2018-07-14T05:48:27.644Z,404.00
2018-07-14T05:49:27.629Z,404.00
2018-07-14T05:50:27.615Z,408.00
2018-07-14T05:51:27.601Z,412.00
2018-07-14T05:52:27.590Z,416.00
2018-07-14T05:53:27.571Z,420.00
2018-07-14T05:54:27.558Z,416.00
2018-07-14T05:55:27.559Z,420.00
2018-07-14T05:56:27.536Z,424.00
2018-07-14T05:57:27.512Z,432.00
2018-07-14T05:58:27.499Z,436.00
2018-07-14T05:59:27.485Z,444.00
2018-07-14T06:00:27.517Z,452.00
2018-07-14T06:01:27.470Z,456.00
2018-07-14T06:02:27.440Z,460.00
2018-07-14T06:03:27.437Z,464.00
2018-07-14T06:04:27.415Z,468.00
2018-07-14T06:05:27.406Z,468.00
2018-07-14T06:06:27.382Z,472.00
2018-07-14T06:07:27.365Z,476.00
2018-07-14T06:08:27.351Z,480.00
2018-07-14T06:09:27.343Z,480.00
2018-07-14T06:10:27.422Z,484.00
2018-07-14T06:11:27.316Z,488.00
2018-07-14T06:12:27.295Z,500.00
2018-07-14T06:13:27.327Z,508.00
2018-07-14T06:14:27.264Z,508.00
2018-07-14T06:15:27.247Z,512.00
2018-07-14T06:16:27.231Z,516.00
2018-07-14T06:17:27.226Z,524.00
2018-07-14T06:18:27.202Z,532.00
2018-07-14T06:19:27.210Z,540.00
2018-07-14T06:20:27.184Z,540.00
2018-07-14T06:21:27.160Z,548.00
2018-07-14T06:22:27.144Z,556.00
2018-07-14T06:23:27.134Z,556.00
2018-07-14T06:24:27.114Z,560.00
2018-07-14T06:25:27.097Z,560.00
2018-07-14T06:26:27.092Z,564.00
2018-07-14T06:27:27.071Z,568.00
2018-07-14T06:28:27.054Z,568.00
2018-07-14T06:29:27.041Z,564.00
2018-07-14T06:30:27.025Z,572.00
2018-07-14T06:31:27.009Z,580.00
2018-07-14T06:32:26.995Z,584.00
2018-07-14T06:33:26.990Z,588.00
2018-07-14T06:34:26.975Z,588.00
2018-07-14T06:35:26.951Z,596.00
2018-07-14T06:36:26.937Z,600.00
2018-07-14T06:37:26.929Z,604.00
2018-07-14T06:38:26.967Z,612.00
2018-07-14T06:39:26.891Z,616.00
2018-07-14T06:40:26.882Z,624.00
2018-07-14T06:41:26.865Z,628.00
2018-07-14T06:42:26.853Z,632.00
2018-07-14T06:43:26.841Z,636.00
2018-07-14T06:44:26.827Z,644.00
2018-07-14T06:45:26.810Z,652.00
2018-07-14T06:46:26.794Z,656.00
2018-07-14T06:47:26.778Z,660.00
2018-07-14T06:48:26.761Z,668.00
2018-07-14T06:49:26.744Z,676.00
2018-07-14T06:50:26.733Z,684.00
2018-07-14T06:51:26.726Z,696.00
2018-07-14T06:52:26.716Z,692.00
2018-07-14T06:53:26.697Z,700.00
2018-07-14T06:54:26.674Z,708.00
2018-07-14T06:55:26.662Z,720.00
2018-07-14T06:56:26.662Z,728.00
2018-07-14T06:57:26.631Z,732.00
2018-07-14T06:58:26.614Z,740.00
2018-07-14T06:59:26.615Z,756.00
2018-07-14T07:00:26.603Z,764.00
2018-07-14T07:01:26.582Z,776.00
2018-07-14T07:02:26.561Z,784.00
2018-07-14T07:03:26.583Z,792.00
2018-07-14T07:04:26.537Z,796.00
2018-07-14T07:05:26.511Z,808.00
2018-07-14T07:06:26.504Z,816.00
2018-07-14T07:07:26.489Z,820.00
2018-07-14T07:08:26.481Z,824.00
2018-07-14T07:09:26.464Z,836.00
2018-07-14T07:10:26.446Z,848.00
2018-07-14T07:11:26.426Z,856.00
2018-07-14T07:12:26.460Z,864.00
2018-07-14T07:13:26.407Z,868.00
2018-07-14T07:14:26.382Z,872.00
2018-07-14T07:15:26.369Z,884.00
2018-07-14T07:16:26.360Z,908.00
2018-07-14T07:17:26.340Z,928.00
2018-07-14T07:18:26.331Z,932.00
2018-07-14T07:19:26.316Z,948.00
2018-07-14T07:20:26.307Z,944.00
2018-07-14T07:21:26.306Z,956.00
2018-07-14T07:22:26.267Z,984.00
2018-07-14T07:23:26.255Z,1000.00
2018-07-14T07:24:26.237Z,1012.00
2018-07-14T07:25:26.224Z,1024.00
2018-07-14T07:26:26.216Z,1048.00
2018-07-14T07:27:26.207Z,1068.00
2018-07-14T07:28:26.187Z,1088.00
2018-07-14T07:29:26.166Z,1104.00
2018-07-14T07:30:26.157Z,1100.00
2018-07-14T07:31:26.143Z,1112.00
2018-07-14T07:32:26.128Z,1132.00
2018-07-14T07:33:26.119Z,1176.00
2018-07-14T07:34:26.094Z,1184.00
2018-07-14T07:35:26.081Z,1232.00
2018-07-14T07:36:26.082Z,1260.00
2018-07-14T07:37:26.052Z,1244.00
2018-07-14T07:38:26.036Z,1284.00
2018-07-14T07:39:26.057Z,1268.00
2018-07-14T07:40:26.017Z,1284.00
2018-07-14T07:41:25.996Z,1348.00
2018-07-14T07:42:26.078Z,1360.00
2018-07-14T07:43:26.009Z,1344.00
2018-07-14T07:44:25.952Z,1280.00
2018-07-14T07:45:25.936Z,744.00
2018-07-14T07:46:25.931Z,1460.00
2018-07-14T07:47:25.914Z,1496.00
2018-07-14T07:48:25.903Z,1488.00
2018-07-14T07:49:25.880Z,1512.00
2018-07-14T07:50:25.871Z,1500.00
2018-07-14T07:51:25.855Z,1556.00
2018-07-14T07:52:25.839Z,1580.00
2018-07-14T07:53:25.826Z,1632.00
2018-07-14T07:54:25.806Z,1636.00
2018-07-14T07:55:25.897Z,1652.00
2018-07-14T07:56:25.788Z,1680.00
2018-07-14T07:57:25.777Z,1708.00
2018-07-14T07:58:25.805Z,1752.00
2018-07-14T07:59:25.744Z,1768.00
2018-07-14T08:00:25.727Z,1792.00
2018-07-14T08:01:25.710Z,1820.00
2018-07-14T08:02:25.695Z,1776.00
2018-07-14T08:03:25.680Z,1828.00
2018-07-14T08:04:25.673Z,1336.00
2018-07-14T08:05:25.656Z,1912.00
2018-07-14T08:06:25.640Z,1892.00
2018-07-14T08:07:25.625Z,1900.00
2018-07-14T08:08:25.610Z,1836.00
2018-07-14T08:09:25.593Z,1920.00
2018-07-14T08:10:25.585Z,1888.00
2018-07-14T08:11:25.573Z,1928.00
2018-07-14T08:12:25.556Z,1928.00
2018-07-14T08:13:25.546Z,1976.00
2018-07-14T08:14:25.584Z,2036.00
2018-07-14T08:15:25.515Z,2056.00
2018-07-14T08:16:25.500Z,2028.00
2018-07-14T08:17:25.496Z,2056.00
2018-07-14T08:18:25.476Z,2056.00
2018-07-14T08:19:25.562Z,2040.00
2018-07-14T08:20:25.443Z,2068.00
2018-07-14T08:21:25.437Z,2048.00
2018-07-14T08:22:25.414Z,2088.00
2018-07-14T08:23:25.405Z,2092.00
2018-07-14T08:24:25.387Z,2100.00
2018-07-14T08:25:25.384Z,2100.00
2018-07-14T08:26:25.360Z,2124.00
2018-07-14T08:27:25.350Z,2136.00
2018-07-14T08:28:25.338Z,2120.00
2018-07-14T08:29:25.327Z,2128.00
2018-07-14T08:30:25.305Z,2120.00
2018-07-14T08:31:25.293Z,2104.00
2018-07-14T08:32:25.333Z,2136.00
2018-07-14T08:33:25.280Z,1520.00
2018-07-14T08:34:25.254Z,2068.00
2018-07-14T08:35:25.318Z,2164.00
2018-07-14T08:36:25.226Z,2160.00
2018-07-14T08:37:25.215Z,2160.00
2018-07-14T08:38:25.197Z,2136.00
2018-07-14T08:39:25.202Z,2164.00
2018-07-14T08:40:25.173Z,2168.00
2018-07-14T08:41:25.176Z,2188.00
2018-07-14T08:42:25.146Z,2216.00
2018-07-14T08:43:25.134Z,2192.00
2018-07-14T08:44:25.128Z,2184.00
2018-07-14T08:45:25.108Z,2220.00
2018-07-14T08:46:25.091Z,2244.00
2018-07-14T08:47:25.082Z,2236.00
2018-07-14T08:48:25.082Z,2252.00
2018-07-14T08:49:25.098Z,2272.00
2018-07-14T08:50:25.090Z,2260.00
2018-07-14T08:51:25.222Z,2260.00
2018-07-14T08:52:25.018Z,2264.00
2018-07-14T08:53:25.000Z,2268.00
2018-07-14T08:54:25.041Z,2280.00
2018-07-14T08:55:24.975Z,2264.00
2018-07-14T08:56:24.967Z,2284.00
2018-07-14T08:57:24.945Z,2280.00
2018-07-14T08:58:24.928Z,2296.00
2018-07-14T08:59:24.920Z,2284.00
2018-07-14T09:00:24.909Z,2272.00
2018-07-14T09:01:24.889Z,2276.00
2018-07-14T09:02:24.888Z,2336.00
2018-07-14T09:03:24.865Z,2316.00
2018-07-14T09:04:24.859Z,2316.00
2018-07-14T09:05:24.848Z,2260.00
2018-07-14T09:06:24.833Z,2228.00
2018-07-14T09:07:24.818Z,2344.00
2018-07-14T09:08:24.819Z,2344.00
2018-07-14T09:09:24.786Z,2332.00
2018-07-14T09:10:24.773Z,2264.00
2018-07-14T09:11:24.763Z,2316.00
2018-07-14T09:12:24.756Z,2368.00
2018-07-14T09:13:24.738Z,2392.00
2018-07-14T09:14:24.723Z,2376.00
2018-07-14T09:15:24.706Z,2348.00
2018-07-14T09:16:24.762Z,2380.00
2018-07-14T09:17:24.682Z,2392.00
2018-07-14T09:18:24.776Z,2408.00
2018-07-14T09:19:24.653Z,2432.00
2018-07-14T09:20:24.652Z,2428.00
2018-07-14T09:21:24.632Z,2440.00
2018-07-14T09:22:24.623Z,2436.00
2018-07-14T09:23:24.609Z,2460.00
2018-07-14T09:24:24.613Z,2464.00
2018-07-14T09:25:24.575Z,2460.00
2018-07-14T09:26:24.570Z,2452.00
2018-07-14T09:27:24.551Z,2464.00
2018-07-14T09:28:24.550Z,2488.00
2018-07-14T09:29:24.526Z,2512.00
2018-07-14T09:30:24.526Z,2536.00
2018-07-14T09:31:24.564Z,2480.00
2018-07-14T09:32:24.491Z,2444.00
2018-07-14T09:33:24.486Z,2448.00
2018-07-14T09:34:24.461Z,2492.00
2018-07-14T09:35:24.451Z,2480.00
2018-07-14T09:36:24.441Z,2492.00
2018-07-14T09:37:24.436Z,2512.00
2018-07-14T09:38:24.419Z,2552.00
2018-07-14T09:39:24.398Z,2560.00
2018-07-14T09:40:24.395Z,2556.00
2018-07-14T09:41:24.381Z,2536.00
2018-07-14T09:42:24.360Z,2508.00
2018-07-14T09:43:24.351Z,2512.00
2018-07-14T09:44:24.334Z,2560.00
2018-07-14T09:45:24.328Z,2560.00
2018-07-14T09:46:24.310Z,2576.00
2018-07-14T09:47:24.311Z,2524.00
2018-07-14T09:48:24.285Z,2504.00
2018-07-14T09:49:24.272Z,2524.00
2018-07-14T09:50:24.264Z,2608.00
2018-07-14T09:51:24.251Z,2628.00
2018-07-14T09:52:24.233Z,2660.00
2018-07-14T09:53:24.329Z,2628.00
2018-07-14T09:54:24.211Z,2504.00
2018-07-14T09:55:24.197Z,2472.00
2018-07-14T09:56:24.187Z,2564.00
2018-07-14T09:57:24.177Z,2648.00
2018-07-14T09:58:24.167Z,2636.00
2018-07-14T09:59:24.154Z,2656.00
2018-07-14T10:00:24.147Z,2608.00
2018-07-14T10:01:24.138Z,2572.00
2018-07-14T10:02:24.123Z,2524.00
2018-07-14T10:03:24.198Z,2592.00
2018-07-14T10:04:24.094Z,2624.00
2018-07-14T10:05:24.076Z,2620.00
2018-07-14T10:06:24.065Z,2656.00
2018-07-14T10:07:24.051Z,2668.00
2018-07-14T10:08:24.039Z,2644.00
2018-07-14T10:09:24.034Z,2816.00
2018-07-14T10:10:24.017Z,2876.00
2018-07-14T10:11:24.013Z,2868.00
2018-07-14T10:12:23.990Z,2548.00
2018-07-14T10:13:23.977Z,1428.00
2018-07-14T10:14:24.045Z,1208.00
2018-07-14T10:15:23.962Z,1164.00
2018-07-14T10:16:23.941Z,1280.00
2018-07-14T10:17:24.109Z,1296.00
2018-07-14T10:18:23.920Z,1360.00
2018-07-14T10:19:23.908Z,1360.00
2018-07-14T10:20:23.894Z,2172.00
2018-07-14T10:21:23.889Z,2464.00
2018-07-14T10:22:23.970Z,2996.00
2018-07-14T10:23:23.857Z,2940.00
2018-07-14T10:24:23.849Z,2848.00
2018-07-14T10:25:24.015Z,2844.00
2018-07-14T10:26:23.828Z,2864.00
2018-07-14T10:27:23.807Z,2820.00
2018-07-14T10:28:23.809Z,2756.00
2018-07-14T10:29:23.783Z,2392.00
2018-07-14T10:30:23.774Z,1132.00
2018-07-14T10:31:23.768Z,1108.00
2018-07-14T10:32:23.748Z,1040.00
2018-07-14T10:33:23.744Z,1408.00
2018-07-14T10:34:23.726Z,2796.00
2018-07-14T10:35:23.726Z,2708.00
2018-07-14T10:36:23.703Z,2752.00
2018-07-14T10:37:23.685Z,2716.00
2018-07-14T10:38:23.672Z,2696.00
2018-07-14T10:39:23.660Z,2616.00
2018-07-14T10:40:23.656Z,1896.00
2018-07-14T10:41:23.632Z,2268.00
2018-07-14T10:42:23.666Z,2776.00
2018-07-14T10:43:23.618Z,2880.00
2018-07-14T10:44:23.604Z,2896.00
2018-07-14T10:45:23.585Z,2632.00
2018-07-14T10:46:23.592Z,1972.00
2018-07-14T10:47:23.568Z,1200.00
2018-07-14T10:48:23.554Z,2140.00
2018-07-14T10:49:23.549Z,1384.00
2018-07-14T10:50:23.530Z,1244.00
2018-07-14T10:51:23.564Z,1124.00
2018-07-14T10:52:23.511Z,1276.00
2018-07-14T10:53:23.494Z,2268.00
2018-07-14T10:54:23.485Z,2868.00
2018-07-14T10:55:23.477Z,2972.00
2018-07-14T10:56:23.456Z,2012.00
2018-07-14T10:57:23.451Z,1268.00
2018-07-14T10:58:23.441Z,1132.00
2018-07-14T10:59:23.443Z,1996.00
2018-07-14T11:00:23.411Z,2896.00
2018-07-14T11:01:23.401Z,2848.00
2018-07-14T11:02:23.386Z,2848.00
2018-07-14T11:03:23.375Z,2864.00
2018-07-14T11:04:23.394Z,2860.00
2018-07-14T11:05:23.350Z,2836.00
2018-07-14T11:06:23.342Z,2824.00
2018-07-14T11:07:23.326Z,2820.00
2018-07-14T11:08:23.316Z,2836.00
2018-07-14T11:09:23.305Z,2872.00
2018-07-14T11:10:23.412Z,2892.00
2018-07-14T11:11:23.279Z,2868.00
2018-07-14T11:12:23.267Z,2824.00
2018-07-14T11:13:23.259Z,2772.00
2018-07-14T11:14:23.248Z,2800.00
2018-07-14T11:15:23.237Z,2812.00
2018-07-14T11:16:23.217Z,2880.00
2018-07-14T11:17:23.222Z,2908.00
2018-07-14T11:18:23.199Z,2940.00
2018-07-14T11:19:23.185Z,2932.00
2018-07-14T11:20:23.183Z,2948.00
2018-07-14T11:21:23.167Z,2960.00
2018-07-14T11:22:23.155Z,3000.00
2018-07-14T11:23:23.154Z,3040.00
2018-07-14T11:24:23.127Z,3052.00
2018-07-14T11:25:23.115Z,3048.00
2018-07-14T11:26:23.113Z,3088.00
2018-07-14T11:27:23.095Z,3168.00
2018-07-14T11:28:23.078Z,3160.00
2018-07-14T11:29:23.094Z,3112.00
2018-07-14T11:30:23.064Z,3080.00
2018-07-14T11:31:23.045Z,3116.00
2018-07-14T11:32:23.044Z,3064.00
2018-07-14T11:33:23.020Z,2944.00
2018-07-14T11:34:23.043Z,2984.00
2018-07-14T11:35:23.002Z,2988.00
2018-07-14T11:36:23.000Z,3008.00
2018-07-14T11:37:22.977Z,1268.00
2018-07-14T11:38:22.965Z,1068.00
2018-07-14T11:39:22.958Z,936.00
2018-07-14T11:40:22.990Z,1252.00
2018-07-14T11:41:22.935Z,1924.00
2018-07-14T11:42:22.924Z,2776.00
2018-07-14T11:43:22.909Z,2956.00
2018-07-14T11:44:22.898Z,2960.00
2018-07-14T11:45:22.899Z,2948.00
2018-07-14T11:46:22.892Z,2964.00
2018-07-14T11:47:22.881Z,2860.00
2018-07-14T11:48:22.864Z,3036.00
2018-07-14T11:49:22.843Z,3048.00
2018-07-14T11:50:22.931Z,2720.00
2018-07-14T11:51:22.815Z,2540.00
2018-07-14T11:52:22.805Z,3012.00
2018-07-14T11:53:22.848Z,3028.00
2018-07-14T11:54:22.960Z,2976.00
2018-07-14T11:55:22.780Z,2992.00
2018-07-14T11:56:22.760Z,2896.00
2018-07-14T11:57:22.748Z,2816.00
2018-07-14T11:58:22.742Z,2848.00
2018-07-14T11:59:22.724Z,2896.00
2018-07-14T12:00:22.715Z,3048.00
2018-07-14T12:01:22.763Z,3088.00
2018-07-14T12:02:22.694Z,1316.00
2018-07-14T12:03:22.808Z,972.00
2018-07-14T12:04:22.669Z,1084.00
2018-07-14T12:05:22.654Z,1132.00
2018-07-14T12:06:22.758Z,1100.00
2018-07-14T12:07:22.669Z,1100.00
2018-07-14T12:08:22.626Z,2932.00
2018-07-14T12:09:22.612Z,1376.00
2018-07-14T12:10:22.595Z,1816.00
2018-07-14T12:11:22.590Z,1468.00
2018-07-14T12:12:22.573Z,2116.00
2018-07-14T12:13:22.601Z,2884.00
2018-07-14T12:14:22.565Z,3084.00
2018-07-14T12:15:22.542Z,3088.00
2018-07-14T12:16:22.530Z,3120.00
2018-07-14T12:17:22.526Z,3076.00
2018-07-14T12:18:22.505Z,3104.00
2018-07-14T12:19:22.502Z,3028.00
2018-07-14T12:20:22.487Z,2952.00
2018-07-14T12:21:22.477Z,3052.00
2018-07-14T12:22:22.675Z,3100.00
2018-07-14T12:23:22.452Z,3164.00
2018-07-14T12:24:22.446Z,3220.00
2018-07-14T12:25:22.432Z,3172.00
2018-07-14T12:26:22.423Z,3116.00
2018-07-14T12:27:22.412Z,3140.00
2018-07-14T12:28:22.397Z,3124.00
2018-07-14T12:29:22.387Z,3124.00
2018-07-14T12:30:22.462Z,2668.00
2018-07-14T12:31:22.380Z,1516.00
2018-07-14T12:32:22.361Z,2008.00
2018-07-14T12:33:22.342Z,1324.00